LFLB/CMF METAR and TAF weather

Enter ICAO airport designator
Station Type Date Time Source
LFLB METAR 2019/09/20 20:30 UTC NOAA

LFLB 202030Z AUTO 01009KT CAVOK 18/10 Q1020


Station Type Date Time Source
LFLB Decoded METAR 2019/09/20 20:30 UTC NOAA

Chambery / Aix-Les-Bains, France (LFLB) 45-39N 005-53E 239M
Sep 20, 2019 - 04:30 PM EDT / 2019.09.20 2030 UTC
Wind: from the N (010 degrees) at 10 MPH (9 KT):0
Visibility: greater than 7 mile(s):0
Temperature: 64 F (18 C)
Dew Point: 50 F (10 C)
Relative Humidity: 59%
Pressure (altimeter): 30.12 in. Hg (1020 hPa)
ob: LFLB 202030Z AUTO 01009KT CAVOK 18/10 Q1020
cycle: 20

Station Type Date Time Source
LFLB TAF 2019/09/20 19:08 UTC NOAA

TAF LFLB 201901Z 2019/2112 CNL

Example: see airport list